createdAt,value
2019-01-11T00:01:35.131Z,95.34
2019-01-11T00:04:38.926Z,95.30
2019-01-11T00:07:42.928Z,94.82
2019-01-11T00:10:46.935Z,95.23
2019-01-11T00:13:50.818Z,95.08
2019-01-11T00:16:54.708Z,95.35
2019-01-11T00:20:03.532Z,95.50
2019-01-11T00:23:04.209Z,95.52
2019-01-11T00:26:08.157Z,95.05
2019-01-11T00:29:12.132Z,94.90
2019-01-11T00:32:15.991Z,94.96
2019-01-11T00:35:20.064Z,94.94
2019-01-11T00:38:24.035Z,94.97
2019-01-11T00:41:27.913Z,95.14
2019-01-11T00:44:31.804Z,95.28
2019-01-11T00:47:35.693Z,95.33
2019-01-11T00:50:39.605Z,95.26
2019-01-11T00:53:43.479Z,95.02
2019-01-11T00:56:47.397Z,94.78
2019-01-11T00:59:51.201Z,94.85
2019-01-11T01:02:55.181Z,94.91
2019-01-11T01:05:59.192Z,95.04
2019-01-11T01:09:04.872Z,94.97
2019-01-11T01:12:09.196Z,94.67
2019-01-11T01:15:14.032Z,94.54
2019-01-11T01:18:18.180Z,94.95
2019-01-11T01:21:22.266Z,95.01
2019-01-11T01:24:26.165Z,94.90
2019-01-11T01:27:30.145Z,94.91
2019-01-11T01:30:34.283Z,95.00
2019-01-11T01:33:38.188Z,94.95
2019-01-11T01:36:42.188Z,95.17
2019-01-11T01:39:46.266Z,95.15
2019-01-11T01:42:50.157Z,95.18
2019-01-11T01:45:54.239Z,95.14
2019-01-11T01:48:58.369Z,95.15
2019-01-11T01:52:02.286Z,95.27
2019-01-11T01:55:07.705Z,95.17
2019-01-11T01:58:11.697Z,95.26
2019-01-11T02:01:15.568Z,95.20
2019-01-11T02:04:19.480Z,95.32
2019-01-11T02:07:23.495Z,95.43
2019-01-11T02:10:27.457Z,95.49
2019-01-11T02:13:31.330Z,95.41
2019-01-11T02:16:35.411Z,95.47
2019-01-11T02:19:39.503Z,95.48
2019-01-11T02:22:43.636Z,95.45
2019-01-11T02:25:47.522Z,95.51
2019-01-11T02:28:51.550Z,95.41
2019-01-11T02:31:55.427Z,95.01
2019-01-11T02:34:59.443Z,94.54
2019-01-11T02:38:03.781Z,94.94
2019-01-11T02:41:07.665Z,95.24
2019-01-11T02:44:11.608Z,95.08
2019-01-11T02:47:15.584Z,95.11
2019-01-11T02:50:19.481Z,94.89
2019-01-11T02:53:23.386Z,95.01
2019-01-11T02:56:27.322Z,94.78
2019-01-11T02:59:31.300Z,94.76
2019-01-11T03:02:35.308Z,94.60
2019-01-11T03:05:39.219Z,94.50
2019-01-11T03:08:43.216Z,94.04
2019-01-11T03:11:47.095Z,94.29
2019-01-11T03:14:51.183Z,93.97
2019-01-11T03:17:55.066Z,93.97
2019-01-11T03:20:58.951Z,93.52
2019-01-11T03:24:02.841Z,93.36
2019-01-11T03:27:06.764Z,93.94
2019-01-11T03:30:16.038Z,94.00
2019-01-11T03:33:19.893Z,94.08
2019-01-11T03:36:23.784Z,93.97
2019-01-11T03:39:27.673Z,93.51
2019-01-11T03:42:31.552Z,93.46
2019-01-11T03:45:35.455Z,93.26
2019-01-11T03:48:39.354Z,93.26
2019-01-11T03:51:43.238Z,93.44
2019-01-11T03:54:47.052Z,93.31
2019-01-11T03:57:51.018Z,93.06
2019-01-11T04:00:54.905Z,92.89
2019-01-11T04:03:58.820Z,93.09
2019-01-11T04:07:02.686Z,93.04
2019-01-11T04:10:09.527Z,93.11
2019-01-11T04:13:14.799Z,93.40
2019-01-11T04:16:18.725Z,93.49
2019-01-11T04:19:22.648Z,93.34
2019-01-11T04:22:31.513Z,93.04
2019-01-11T04:25:41.338Z,92.79
2019-01-11T04:28:45.320Z,93.09
2019-01-11T04:31:49.627Z,92.82
2019-01-11T04:34:53.579Z,92.87
2019-01-11T04:37:57.543Z,92.81
2019-01-11T04:41:01.425Z,92.37
2019-01-11T04:44:05.391Z,92.48
2019-01-11T04:47:09.274Z,92.76
2019-01-11T04:50:18.382Z,92.94
2019-01-11T04:53:22.391Z,92.90
2019-01-11T04:56:26.271Z,92.35
2019-01-11T04:59:30.180Z,92.67
2019-01-11T05:02:34.058Z,92.75
2019-01-11T05:05:37.975Z,92.93
2019-01-11T05:08:41.876Z,92.96
2019-01-11T05:11:45.724Z,92.51
2019-01-11T05:14:49.563Z,92.46
2019-01-11T05:17:53.403Z,92.46
2019-01-11T05:20:57.194Z,92.79
2019-01-11T05:24:01.078Z,92.81
2019-01-11T05:27:04.902Z,92.49
2019-01-11T05:30:12.402Z,92.74
2019-01-11T05:33:16.276Z,92.30
2019-01-11T05:36:20.090Z,92.12
2019-01-11T05:39:23.908Z,92.15
2019-01-11T05:42:27.760Z,91.89
2019-01-11T05:45:31.641Z,91.92
2019-01-11T05:48:35.560Z,91.93
2019-01-11T05:51:39.552Z,91.31
2019-01-11T05:54:43.445Z,91.52
2019-01-11T05:58:13.605Z,91.45
2019-01-11T06:01:17.471Z,91.40
2019-01-11T06:04:52.671Z,91.50
2019-01-11T06:08:01.270Z,90.94
2019-01-11T06:11:05.417Z,90.77
2019-01-11T06:14:09.316Z,90.73
2019-01-11T06:17:13.337Z,90.26
2019-01-11T06:20:17.678Z,90.65
2019-01-11T06:23:21.528Z,90.29
2019-01-11T06:26:25.480Z,90.41
2019-01-11T06:29:29.297Z,90.53
2019-01-11T06:32:33.111Z,90.63
2019-01-11T06:35:36.978Z,90.48
2019-01-11T06:38:40.793Z,90.45
2019-01-11T06:41:50.763Z,90.48
2019-01-11T06:44:54.969Z,90.47
2019-01-11T06:47:58.923Z,90.54
2019-01-11T06:51:02.744Z,90.55
2019-01-11T06:54:06.614Z,90.30
2019-01-11T06:57:10.678Z,90.32
2019-01-11T07:00:15.159Z,90.21
2019-01-11T07:03:18.970Z,89.89
2019-01-11T07:06:22.841Z,89.90
2019-01-11T07:09:26.756Z,89.76
2019-01-11T07:12:30.624Z,89.60
2019-01-11T07:15:34.445Z,89.60
2019-01-11T07:18:38.271Z,89.31
2019-01-11T07:21:42.152Z,89.41
2019-01-11T07:24:46.319Z,89.92
2019-01-11T07:28:02.009Z,89.59
2019-01-11T07:31:08.207Z,89.50
2019-01-11T07:34:12.089Z,89.59
2019-01-11T07:37:15.956Z,89.79
2019-01-11T07:40:19.856Z,89.88
2019-01-11T07:43:23.683Z,89.92
2019-01-11T07:46:27.649Z,89.77
2019-01-11T07:49:31.608Z,89.87
2019-01-11T07:52:35.563Z,89.80
2019-01-11T07:55:39.529Z,90.01
2019-01-11T07:58:43.529Z,90.26
2019-01-11T08:01:47.571Z,90.63
2019-01-11T08:04:51.576Z,90.47
2019-01-11T08:07:55.456Z,90.68
2019-01-11T08:10:59.275Z,90.78
2019-01-11T08:14:03.240Z,90.82
2019-01-11T08:17:07.144Z,90.85
2019-01-11T08:20:11.072Z,91.19
2019-01-11T08:23:14.965Z,91.17
2019-01-11T08:26:18.916Z,91.21
2019-01-11T08:29:22.839Z,91.24
2019-01-11T08:32:26.716Z,91.25
2019-01-11T08:35:30.624Z,91.04
2019-01-11T08:38:34.483Z,91.04
2019-01-11T08:41:38.878Z,90.94
2019-01-11T08:44:43.260Z,90.94
2019-01-11T08:47:47.251Z,91.37
2019-01-11T08:50:51.301Z,91.06
2019-01-11T08:53:55.175Z,90.81
2019-01-11T08:57:00.790Z,90.58
2019-01-11T09:00:05.987Z,90.25
2019-01-11T09:03:09.872Z,90.26
2019-01-11T09:06:13.843Z,90.16
2019-01-11T09:09:17.828Z,90.30
2019-01-11T09:12:21.756Z,90.00
2019-01-11T09:15:25.653Z,89.49
2019-01-11T09:18:43.026Z,89.67
2019-01-11T09:21:46.929Z,89.68
2019-01-11T09:24:50.810Z,89.94
2019-01-11T09:27:54.612Z,89.58
2019-01-11T09:30:58.462Z,89.88
2019-01-11T09:34:02.338Z,89.48
2019-01-11T09:37:06.313Z,89.41
2019-01-11T09:40:10.406Z,89.41
2019-01-11T09:43:14.231Z,89.20
2019-01-11T09:46:18.034Z,88.93
2019-01-11T09:49:21.860Z,88.98
2019-01-11T09:52:25.937Z,88.47
2019-01-11T09:55:29.890Z,88.95
2019-01-11T09:58:33.701Z,88.81
2019-01-11T10:01:37.599Z,88.62
2019-01-11T10:04:42.094Z,88.21
2019-01-11T10:07:45.987Z,88.03
2019-01-11T10:10:49.948Z,87.96
2019-01-11T10:13:53.795Z,87.88
2019-01-11T10:16:57.751Z,87.66
2019-01-11T10:20:01.600Z,87.69
2019-01-11T10:23:05.579Z,88.00
2019-01-11T10:26:09.611Z,87.43
2019-01-11T10:29:13.463Z,87.16
2019-01-11T10:32:17.405Z,86.92
2019-01-11T10:35:21.581Z,86.58
2019-01-11T10:38:25.485Z,86.69
2019-01-11T10:41:29.996Z,85.97
2019-01-11T10:44:33.906Z,86.22
2019-01-11T10:47:37.817Z,86.33
2019-01-11T10:50:41.640Z,86.51
2019-01-11T10:53:45.453Z,86.64
2019-01-11T10:56:49.408Z,86.39
2019-01-11T10:59:53.363Z,86.39
2019-01-11T11:02:57.718Z,85.32
2019-01-11T11:06:01.601Z,85.67
2019-01-11T11:09:07.415Z,85.46
2019-01-11T11:12:11.322Z,85.17
2019-01-11T11:15:16.430Z,84.69
2019-01-11T11:18:20.415Z,84.42
2019-01-11T11:21:24.290Z,83.98
2019-01-11T11:24:28.227Z,84.14
2019-01-11T11:27:32.254Z,83.49
2019-01-11T11:30:36.143Z,84.00
2019-01-11T11:33:40.042Z,83.66
2019-01-11T11:36:43.942Z,83.68
2019-01-11T11:39:47.849Z,83.57
2019-01-11T11:42:51.759Z,83.13
2019-01-11T11:45:55.784Z,83.04
2019-01-11T11:48:59.648Z,82.57
2019-01-11T11:52:03.560Z,82.54
2019-01-11T11:55:07.782Z,82.25
2019-01-11T11:58:11.639Z,82.63
2019-01-11T12:01:15.443Z,82.90
2019-01-11T12:04:19.344Z,82.56
2019-01-11T12:07:23.146Z,82.01
2019-01-11T12:10:27.060Z,82.08
2019-01-11T12:13:34.433Z,82.06
2019-01-11T12:16:36.697Z,81.36
2019-01-11T12:19:40.530Z,81.58
2019-01-11T12:22:44.480Z,81.72
2019-01-11T12:25:48.311Z,81.50
2019-01-11T12:28:52.192Z,81.83
2019-01-11T12:31:56.094Z,80.79
2019-01-11T12:35:00.005Z,80.50
2019-01-11T12:38:03.997Z,80.90
2019-01-11T12:41:07.868Z,80.79
2019-01-11T12:44:11.819Z,81.66
2019-01-11T12:47:15.758Z,81.43
2019-01-11T12:50:22.623Z,81.14
2019-01-11T12:53:26.513Z,81.44
2019-01-11T12:56:30.408Z,81.08
2019-01-11T12:59:34.390Z,81.22
2019-01-11T13:02:38.268Z,81.35
2019-01-11T13:05:42.249Z,81.28
2019-01-11T13:08:46.212Z,81.43
2019-01-11T13:11:50.122Z,81.39
2019-01-11T13:14:54.024Z,81.72
2019-01-11T13:17:57.903Z,81.17
2019-01-11T13:21:01.789Z,80.69
2019-01-11T13:24:05.950Z,81.22
2019-01-11T13:27:09.832Z,81.09
2019-01-11T13:30:15.705Z,80.69
2019-01-11T13:33:19.655Z,80.94
2019-01-11T13:36:23.631Z,81.05
2019-01-11T13:39:27.511Z,80.73
2019-01-11T13:42:31.480Z,80.79
2019-01-11T13:45:35.454Z,80.79
2019-01-11T13:48:39.472Z,80.60
2019-01-11T13:51:43.377Z,80.62
2019-01-11T13:54:47.269Z,80.14
2019-01-11T13:57:51.175Z,80.07
2019-01-11T14:00:55.147Z,80.08
2019-01-11T14:03:58.956Z,80.20
2019-01-11T14:07:02.865Z,80.62
2019-01-11T14:10:06.943Z,80.59
2019-01-11T14:13:10.840Z,80.88
2019-01-11T14:16:14.815Z,80.37
2019-01-11T14:19:18.645Z,80.26
2019-01-11T14:22:22.473Z,80.36
2019-01-11T14:25:26.480Z,80.75
2019-01-11T14:28:30.274Z,81.22
2019-01-11T14:31:34.277Z,81.33
2019-01-11T14:34:38.147Z,81.39
2019-01-11T14:37:42.211Z,81.25
2019-01-11T14:40:46.092Z,81.50
2019-01-11T14:43:50.274Z,81.67
2019-01-11T14:46:54.085Z,81.30
2019-01-11T14:49:57.960Z,81.35
2019-01-11T14:53:01.874Z,81.61
2019-01-11T14:56:05.854Z,81.48
2019-01-11T14:59:09.712Z,81.59
2019-01-11T15:02:13.598Z,80.74
2019-01-11T15:05:17.828Z,80.20
2019-01-11T15:08:21.611Z,79.96
2019-01-11T15:11:25.503Z,79.86
2019-01-11T15:14:29.448Z,79.91
2019-01-11T15:17:33.229Z,80.19
2019-01-11T15:20:37.117Z,80.35
2019-01-11T15:23:41.053Z,80.91
2019-01-11T15:26:44.924Z,81.58
2019-01-11T15:29:48.827Z,81.69
2019-01-11T15:32:52.807Z,81.72
2019-01-11T15:35:56.795Z,82.00
2019-01-11T15:39:00.677Z,81.93
2019-01-11T15:42:04.646Z,81.65
2019-01-11T15:45:08.608Z,81.64
2019-01-11T15:48:17.638Z,81.85
2019-01-11T15:51:24.320Z,82.09
2019-01-11T15:54:28.206Z,82.05
2019-01-11T15:57:44.388Z,81.69
2019-01-11T16:00:49.128Z,82.01
2019-01-11T16:03:53.105Z,82.02
2019-01-11T16:06:56.983Z,82.22
2019-01-11T16:10:05.995Z,82.46
2019-01-11T16:13:29.582Z,82.26
2019-01-11T16:16:47.304Z,82.50
2019-01-11T16:19:51.143Z,82.70
2019-01-11T16:22:55.022Z,82.73
2019-01-11T16:25:58.863Z,82.80
2019-01-11T16:29:02.758Z,83.30
2019-01-11T16:32:06.731Z,83.30
2019-01-11T16:35:10.672Z,83.34
2019-01-11T16:38:14.681Z,83.79
2019-01-11T16:41:18.492Z,83.51
2019-01-11T16:44:22.481Z,83.14
2019-01-11T16:47:26.392Z,83.14
2019-01-11T16:50:30.282Z,83.70
2019-01-11T16:53:34.190Z,83.67
2019-01-11T16:56:38.183Z,83.61
2019-01-11T16:59:42.037Z,83.67
2019-01-11T17:02:45.928Z,83.99
2019-01-11T17:05:49.992Z,83.07
2019-01-11T17:08:53.885Z,83.23
2019-01-11T17:11:58.338Z,82.61
2019-01-11T17:15:02.422Z,82.63
2019-01-11T17:18:06.430Z,81.98
2019-01-11T17:21:10.301Z,82.08
2019-01-11T17:24:14.387Z,81.88
2019-01-11T17:27:18.561Z,82.17
2019-01-11T17:30:22.434Z,81.70
2019-01-11T17:33:26.319Z,81.33
2019-01-11T17:36:30.208Z,80.82
2019-01-11T17:39:34.500Z,80.44
2019-01-11T17:42:38.397Z,80.00
2019-01-11T17:45:42.259Z,80.01
2019-01-11T17:48:46.175Z,79.68
2019-01-11T17:51:50.045Z,79.92
2019-01-11T17:54:54.112Z,79.44
2019-01-11T17:57:57.976Z,79.79
2019-01-11T18:01:01.958Z,80.43
2019-01-11T18:04:06.233Z,80.71
2019-01-11T18:07:10.120Z,80.13
2019-01-11T18:10:14.178Z,80.77
2019-01-11T18:13:18.036Z,80.73
2019-01-11T18:16:21.879Z,80.60
2019-01-11T18:19:25.767Z,80.79
2019-01-11T18:22:29.687Z,80.72
2019-01-11T18:25:33.569Z,80.21
2019-01-11T18:28:37.420Z,80.13
2019-01-11T18:31:41.279Z,80.86
2019-01-11T18:34:45.271Z,81.02
2019-01-11T18:37:49.142Z,80.85
2019-01-11T18:40:53.026Z,80.84
2019-01-11T18:43:57.007Z,80.92
2019-01-11T18:47:00.844Z,80.92
2019-01-11T18:50:07.730Z,80.73
2019-01-11T18:53:13.847Z,81.02
2019-01-11T18:56:17.234Z,81.24
2019-01-11T18:59:21.174Z,80.81
2019-01-11T19:02:25.009Z,80.96
2019-01-11T19:05:28.870Z,81.53
2019-01-11T19:08:32.684Z,81.25
2019-01-11T19:11:36.564Z,80.78
2019-01-11T19:14:40.371Z,81.13
2019-01-11T19:17:44.435Z,80.94
2019-01-11T19:20:48.391Z,80.79
2019-01-11T19:23:52.336Z,80.86
2019-01-11T19:26:56.319Z,81.37
2019-01-11T19:30:00.253Z,81.66
2019-01-11T19:33:04.177Z,81.69
2019-01-11T19:36:08.147Z,81.19
2019-01-11T19:39:11.958Z,81.04
2019-01-11T19:42:15.840Z,81.08
2019-01-11T19:45:20.393Z,81.10
2019-01-11T19:48:24.282Z,81.64
2019-01-11T19:51:28.168Z,81.42
2019-01-11T19:54:31.993Z,81.47
2019-01-11T19:57:36.077Z,81.75
2019-01-11T20:00:40.088Z,82.01
2019-01-11T20:03:43.970Z,81.99
2019-01-11T20:06:48.033Z,81.82
2019-01-11T20:09:52.003Z,81.17
2019-01-11T20:12:55.957Z,81.65
2019-01-11T20:15:59.896Z,81.50
2019-01-11T20:19:04.386Z,81.57
2019-01-11T20:22:08.332Z,81.68
2019-01-11T20:25:15.002Z,82.04
2019-01-11T20:28:18.950Z,81.68
2019-01-11T20:31:22.774Z,81.83
2019-01-11T20:34:27.216Z,81.77
2019-01-11T20:37:33.565Z,81.77
2019-01-11T20:40:37.546Z,82.18
2019-01-11T20:43:41.492Z,82.36
2019-01-11T20:46:45.356Z,82.22
2019-01-11T20:49:49.321Z,82.38
2019-01-11T20:52:53.303Z,82.43
2019-01-11T20:55:57.257Z,82.54
2019-01-11T20:59:01.548Z,82.54
2019-01-11T21:02:05.787Z,82.25
2019-01-11T21:05:10.047Z,82.38
2019-01-11T21:08:13.828Z,82.06
2019-01-11T21:11:17.799Z,82.66
2019-01-11T21:14:21.667Z,82.43
2019-01-11T21:17:25.552Z,82.16
2019-01-11T21:20:29.434Z,82.80
2019-01-11T21:23:33.329Z,82.34
2019-01-11T21:26:37.503Z,82.60
2019-01-11T21:29:41.368Z,82.40
2019-01-11T21:32:45.537Z,82.29
2019-01-11T21:35:49.515Z,82.15
2019-01-11T21:38:53.393Z,82.25
2019-01-11T21:41:57.264Z,82.30
2019-01-11T21:45:01.198Z,82.09
2019-01-11T21:48:05.171Z,82.50
2019-01-11T21:51:09.125Z,82.28
2019-01-11T21:54:14.616Z,82.04
2019-01-11T21:57:18.490Z,81.90
2019-01-11T22:00:31.948Z,82.08
2019-01-11T22:03:35.830Z,82.48
2019-01-11T22:06:39.795Z,82.11
2019-01-11T22:09:43.679Z,81.91
2019-01-11T22:12:47.825Z,81.65
2019-01-11T22:15:51.751Z,81.56
2019-01-11T22:18:55.646Z,82.49
2019-01-11T22:21:59.498Z,82.48
2019-01-11T22:25:03.450Z,82.76
2019-01-11T22:28:07.534Z,82.76
2019-01-11T22:31:11.332Z,82.45
2019-01-11T22:34:15.164Z,82.45
2019-01-11T22:37:19.108Z,82.41
2019-01-11T22:40:23.865Z,82.15
2019-01-11T22:43:27.746Z,82.64
2019-01-11T22:46:31.629Z,82.38
2019-01-11T22:49:35.504Z,82.67
2019-01-11T22:52:39.388Z,82.91
2019-01-11T22:55:43.215Z,82.78
2019-01-11T22:58:47.105Z,82.95
2019-01-11T23:02:14.832Z,82.70
2019-01-11T23:05:18.792Z,82.51
2019-01-11T23:08:22.891Z,82.45
2019-01-11T23:11:54.173Z,82.75
2019-01-11T23:14:57.987Z,83.15
2019-01-11T23:18:05.195Z,83.38
2019-01-11T23:21:09.648Z,83.21
2019-01-11T23:24:17.274Z,83.10
2019-01-11T23:27:19.219Z,82.86
2019-01-11T23:30:23.199Z,83.34
2019-01-11T23:33:27.079Z,83.05
2019-01-11T23:36:30.950Z,83.51
2019-01-11T23:39:34.847Z,83.35
2019-01-11T23:42:38.812Z,83.01
2019-01-11T23:45:42.728Z,83.09
2019-01-11T23:48:46.597Z,82.83
2019-01-11T23:51:50.493Z,82.89
2019-01-11T23:54:54.370Z,82.05
2019-01-11T23:57:58.289Z,81.84
